Time;durP1;ratioP1;P1;durP2;ratioP2;P2;SDS_P1;SDS_P2;PMS_P1;PMS_P2;Temp;Humidity;BMP_temperature;BMP_pressure;BME280_temperature;BME280_humidity;BME280_pressure;Samples;Min_cycle;Max_cycle;Signal;HPM_P1;HPM_P2
2024/01/09 00:00:12;;;;;;;;;;;;;;;-3.80;48.95;99041.97;5105290;27;19946;-54
2024/01/09 00:03:01;;;;;;;;;;;;;;;-3.96;48.67;99045.69;5098184;27;20381;-54
2024/01/09 00:05:52;;;;;;;;;;;;;;;-3.99;48.82;99042.63;5108461;27;19932;-58
2024/01/09 00:08:40;;;;;;;;;;;;;;;-4.07;49.06;99042.72;5100187;27;19920;-55
2024/01/09 00:11:29;;;;;;;;;;;;;;;-3.98;49.05;99044.25;5105620;27;19930;-55
2024/01/09 00:14:17;;;;;;;;;;;;;;;-3.86;48.62;99031.28;5112724;27;19942;-55
2024/01/09 00:17:05;;;;;;;;;;;;;;;-3.97;48.63;99046.72;5097954;27;20003;-55
2024/01/09 00:19:53;;;;;;;;;;;;;;;-4.43;49.22;99048.88;5108071;27;19920;-57
2024/01/09 00:22:43;;;;;;;;;;;;;;;-4.18;49.60;99044.06;5114174;27;20281;-55
2024/01/09 00:25:31;;;;;;;;;;;;;;;-3.98;49.40;99038.94;5112115;27;19920;-55
2024/01/09 00:28:19;;;;;;;;;;;;;;;-3.95;48.36;99044.69;5088404;28;20265;-60
2024/01/09 00:31:07;;;;;;;;;;;;;;;-4.08;48.49;99038.44;5107597;27;20380;-58
2024/01/09 00:33:55;;;;;;;;;;;;;;;-3.96;48.57;99039.56;5112810;27;19999;-55
2024/01/09 00:36:44;;;;;;;;;;;;;;;-4.11;48.52;99044.13;5098078;27;19927;-54
2024/01/09 00:39:33;;;;;;;;;;;;;;;-4.15;48.74;99046.34;5105757;27;19926;-56
2024/01/09 00:42:21;;;;;;;;;;;;;;;-4.00;48.94;99044.44;5098652;27;19920;-54
2024/01/09 00:45:09;;;;;;;;;;;;;;;-3.97;48.68;99041.41;5098140;28;20381;-55
2024/01/09 00:48:00;;;;;;;;;;;;;;;-4.18;48.31;99035.28;5104892;28;20022;-55
2024/01/09 00:50:48;;;;;;;;;;;;;;;-4.22;48.47;99030.34;5119447;27;19924;-61
2024/01/09 00:53:36;;;;;;;;;;;;;;;-4.35;49.39;99032.88;5100743;28;19927;-57
2024/01/09 00:56:26;;;;;;;;;;;;;;;-4.17;49.25;99040.38;5105366;28;19938;-64
2024/01/09 00:59:14;;;;;;;;;;;;;;;-4.28;48.52;99039.06;5102609;27;19969;-58
2024/01/09 01:02:02;;;;;;;;;;;;;;;-4.29;49.69;99033.94;5099381;27;19943;-56
2024/01/09 01:04:50;;;;;;;;;;;;;;;-4.04;49.43;99023.78;5094519;28;19920;-57
2024/01/09 01:07:38;;;;;;;;;;;;;;;-4.13;49.13;99031.03;5102770;28;20018;-55
2024/01/09 01:10:26;;;;;;;;;;;;;;;-4.07;48.59;99026.81;5106055;28;19939;-57
2024/01/09 01:13:15;;;;;;;;;;;;;;;-4.02;49.06;99022.56;5101183;28;19920;-55
2024/01/09 01:16:03;;;;;;;;;;;;;;;-4.12;48.85;99037.16;5104515;28;20273;-56
2024/01/09 01:18:51;;;;;;;;;;;;;;;-4.02;49.07;99029.72;5103368;28;20016;-54
2024/01/09 01:21:39;;;;;;;;;;;;;;;-4.04;49.20;99034.41;5104269;28;19928;-57
2024/01/09 01:24:27;;;;;;;;;;;;;;;-3.95;48.65;99035.91;5094844;27;19920;-56
2024/01/09 01:27:15;;;;;;;;;;;;;;;-4.15;48.74;99041.03;5093395;28;19920;-55
2024/01/09 01:30:06;;;;;;;;;;;;;;;-4.09;47.89;99039.47;5102172;28;19932;-56
2024/01/09 01:32:54;;;;;;;;;;;;;;;-4.20;48.15;99037.31;5101878;28;19932;-57
2024/01/09 01:35:42;;;;;;;;;;;;;;;-4.14;48.74;99039.19;5098404;28;19926;-55
2024/01/09 01:38:30;;;;;;;;;;;;;;;-3.98;49.12;99038.94;5098395;28;19927;-58
2024/01/09 01:41:19;;;;;;;;;;;;;;;-4.00;48.10;99036.47;5101898;28;20610;-55
2024/01/09 01:44:15;;;;;;;;;;;;;;;-4.12;49.17;99037.16;5097658;27;19920;-55
2024/01/09 01:47:04;;;;;;;;;;;;;;;-4.05;48.32;99030.94;5096220;28;19981;-55
2024/01/09 01:49:55;;;;;;;;;;;;;;;-4.31;48.79;99041.28;5105744;28;19927;-58
2024/01/09 01:52:44;;;;;;;;;;;;;;;-4.39;49.10;99036.06;5092100;28;20010;-55
2024/01/09 01:55:33;;;;;;;;;;;;;;;-4.44;49.13;99030.50;5098262;27;20280;-54
2024/01/09 01:58:21;;;;;;;;;;;;;;;-4.55;49.40;99023.88;5094329;28;19955;-55
2024/01/09 02:01:09;;;;;;;;;;;;;;;-4.70;49.86;99025.72;5101089;28;19953;-55
2024/01/09 02:03:59;;;;;;;;;;;;;;;-4.71;49.88;99016.94;5099664;28;19920;-55
2024/01/09 02:06:47;;;;;;;;;;;;;;;-4.80;50.04;99018.88;5096722;28;19942;-57
2024/01/09 02:09:36;;;;;;;;;;;;;;;-4.70;50.08;99015.13;5100183;28;19927;-55
2024/01/09 02:12:24;;;;;;;;;;;;;;;-4.60;49.39;99015.66;5104771;28;20395;-63
2024/01/09 02:15:12;;;;;;;;;;;;;;;-4.65;50.09;99013.53;5103384;28;19943;-54
2024/01/09 02:18:00;;;;;;;;;;;;;;;-4.63;50.16;99011.56;5099692;28;19963;-57
2024/01/09 02:20:50;;;;;;;;;;;;;;;-4.54;50.50;99009.59;5103206;28;19920;-57
2024/01/09 02:23:39;;;;;;;;;;;;;;;-4.77;49.55;99010.56;5101521;28;19927;-55
2024/01/09 02:26:29;;;;;;;;;;;;;;;-4.53;49.49;99005.91;5097123;28;19935;-56
2024/01/09 02:29:33;;;;;;;;;;;;;;;-4.47;50.00;98997.25;5098666;28;19931;-55
2024/01/09 02:32:23;;;;;;;;;;;;;;;-4.45;49.22;98992.56;5098444;28;20022;-55
2024/01/09 02:35:11;;;;;;;;;;;;;;;-4.63;49.19;98990.34;5099266;28;19959;-56
2024/01/09 02:38:00;;;;;;;;;;;;;;;-4.48;49.87;99004.34;5096383;28;19926;-56
2024/01/09 02:40:48;;;;;;;;;;;;;;;-4.70;49.39;99000.03;5111496;27;19919;-56
2024/01/09 02:43:36;;;;;;;;;;;;;;;-4.80;49.82;99000.31;5100036;27;20057;-55
2024/01/09 02:46:25;;;;;;;;;;;;;;;-4.68;50.10;99003.34;5099932;27;19926;-60
2024/01/09 02:49:15;;;;;;;;;;;;;;;-4.59;49.78;98991.59;5109864;27;19934;-55
2024/01/09 02:52:03;;;;;;;;;;;;;;;-4.45;49.34;98989.91;5106352;27;19927;-55
2024/01/09 02:54:53;;;;;;;;;;;;;;;-4.55;49.38;98981.44;5105725;27;19959;-55
2024/01/09 02:57:42;;;;;;;;;;;;;;;-4.51;49.08;98993.31;5098090;27;20032;-58
2024/01/09 03:00:31;;;;;;;;;;;;;;;-4.50;48.79;98994.94;5105969;27;19920;-56
2024/01/09 03:03:19;;;;;;;;;;;;;;;-4.56;49.33;98996.53;5101166;27;20349;-58
2024/01/09 03:06:09;;;;;;;;;;;;;;;-4.52;48.91;99000.44;5102612;27;19919;-61
2024/01/09 03:08:57;;;;;;;;;;;;;;;-4.48;49.07;99000.88;5106471;27;19919;-56
2024/01/09 03:11:45;;;;;;;;;;;;;;;-4.49;48.71;99004.53;5108989;27;20016;-55
2024/01/09 03:14:36;;;;;;;;;;;;;;;-4.46;48.87;98998.88;5096659;27;20433;-59
2024/01/09 03:17:24;;;;;;;;;;;;;;;-4.38;49.38;98998.75;5110710;27;20014;-55
2024/01/09 03:20:13;;;;;;;;;;;;;;;-4.53;49.74;99005.91;5112896;27;20010;-55
2024/01/09 03:23:05;;;;;;;;;;;;;;;-4.60;48.89;98997.91;5100066;27;19920;-54
2024/01/09 03:25:53;;;;;;;;;;;;;;;-4.47;49.38;99007.84;5099497;28;19927;-57
2024/01/09 03:28:41;;;;;;;;;;;;;;;-4.30;48.87;99006.59;5097419;28;20327;-55
2024/01/09 03:31:30;;;;;;;;;;;;;;;-4.53;49.61;99016.53;5096454;28;19934;-55
2024/01/09 03:34:18;;;;;;;;;;;;;;;-4.48;49.68;99009.66;5095300;28;20281;-56
2024/01/09 03:37:07;;;;;;;;;;;;;;;-4.58;49.05;99003.00;5096305;28;19931;-55
2024/01/09 03:39:56;;;;;;;;;;;;;;;-4.68;49.12;99002.50;5084142;28;19920;-56
2024/01/09 03:42:44;;;;;;;;;;;;;;;-4.51;49.62;99004.75;5114366;27;20369;-57
2024/01/09 03:45:32;;;;;;;;;;;;;;;-4.41;50.07;99003.63;5099763;28;19935;-55
2024/01/09 03:48:21;;;;;;;;;;;;;;;-4.28;49.09;99017.00;5088958;28;20278;-55
2024/01/09 03:51:09;;;;;;;;;;;;;;;-4.35;48.74;98997.56;5098729;28;20289;-54
2024/01/09 03:53:57;;;;;;;;;;;;;;;-4.56;49.01;99009.78;5099888;27;19931;-55
2024/01/09 03:56:46;;;;;;;;;;;;;;;-4.52;49.14;99018.19;5099603;28;19923;-55
2024/01/09 03:59:34;;;;;;;;;;;;;;;-4.57;48.81;99016.09;5112490;27;19931;-55
2024/01/09 04:02:23;;;;;;;;;;;;;;;-4.74;49.42;99019.97;5099817;27;19964;-54
2024/01/09 04:05:11;;;;;;;;;;;;;;;-4.65;49.08;99013.53;5100708;27;20284;-55
2024/01/09 04:08:00;;;;;;;;;;;;;;;-4.55;49.96;99021.22;5108817;27;20010;-55
2024/01/09 04:10:48;;;;;;;;;;;;;;;-4.58;49.61;99021.56;5093445;27;19921;-55
2024/01/09 04:13:38;;;;;;;;;;;;;;;-4.56;49.07;99024.88;5102539;27;19919;-55
2024/01/09 04:16:26;;;;;;;;;;;;;;;-4.61;49.26;99022.78;5107212;27;19919;-55
2024/01/09 04:19:14;;;;;;;;;;;;;;;-4.32;49.70;99024.50;5102835;27;19924;-55
2024/01/09 04:22:02;;;;;;;;;;;;;;;-4.30;48.99;99022.50;5104125;27;20396;-57
2024/01/09 04:24:50;;;;;;;;;;;;;;;-4.48;48.70;99022.91;5106276;27;20019;-55
2024/01/09 04:27:38;;;;;;;;;;;;;;;-4.36;48.55;99023.25;5104193;27;20150;-56
2024/01/09 04:30:28;;;;;;;;;;;;;;;-4.30;49.03;99022.50;5101794;27;19927;-56
2024/01/09 04:33:16;;;;;;;;;;;;;;;-4.28;48.78;99025.78;5107067;27;20246;-55
2024/01/09 04:36:05;;;;;;;;;;;;;;;-4.34;48.19;99031.03;5108987;27;20497;-55
2024/01/09 04:38:54;;;;;;;;;;;;;;;-4.43;48.50;99025.00;5104967;27;20302;-56
2024/01/09 04:41:42;;;;;;;;;;;;;;;-4.37;48.98;99018.13;5096100;27;19975;-59
2024/01/09 04:44:30;;;;;;;;;;;;;;;-4.31;48.37;99026.19;5100942;28;20399;-55
2024/01/09 04:47:20;;;;;;;;;;;;;;;-4.22;48.89;99013.59;5104770;28;19924;-56
2024/01/09 04:50:08;;;;;;;;;;;;;;;-4.22;48.38;99009.09;5099857;28;20783;-55
2024/01/09 04:52:57;;;;;;;;;;;;;;;-4.45;48.52;99003.16;5101338;28;20290;-58
2024/01/09 04:55:45;;;;;;;;;;;;;;;-4.29;48.76;98997.63;5096182;28;19928;-56
2024/01/09 04:58:33;;;;;;;;;;;;;;;-4.39;48.49;98997.09;5098218;28;20281;-57
2024/01/09 05:01:21;;;;;;;;;;;;;;;-4.38;48.62;98998.75;5106062;27;20011;-56
2024/01/09 05:04:10;;;;;;;;;;;;;;;-4.27;48.41;99000.06;5111244;28;20261;-55
2024/01/09 05:06:59;;;;;;;;;;;;;;;-4.45;47.97;98997.88;5104290;27;19927;-55
2024/01/09 05:09:47;;;;;;;;;;;;;;;-4.50;47.97;98994.94;5100079;28;19919;-56
2024/01/09 05:12:35;;;;;;;;;;;;;;;-4.39;48.32;98997.09;5097719;28;19935;-56
2024/01/09 05:15:23;;;;;;;;;;;;;;;-4.22;47.56;98995.84;5107481;28;20012;-57
2024/01/09 05:18:11;;;;;;;;;;;;;;;-4.27;47.16;99003.53;5101207;27;20007;-56
2024/01/09 05:21:01;;;;;;;;;;;;;;;-4.11;47.17;98994.50;5102648;28;19939;-55
2024/01/09 05:23:49;;;;;;;;;;;;;;;-4.20;46.66;98992.19;5105643;28;19919;-55
2024/01/09 05:26:39;;;;;;;;;;;;;;;-3.98;46.55;98983.22;5120805;27;20446;-62
2024/01/09 05:29:27;;;;;;;;;;;;;;;-4.04;46.93;98994.59;5104236;28;20317;-57
2024/01/09 05:32:15;;;;;;;;;;;;;;;-3.78;46.88;98999.28;5107185;27;19928;-61
2024/01/09 05:35:03;;;;;;;;;;;;;;;-3.85;45.81;98999.22;5105683;27;19927;-56
2024/01/09 05:37:53;;;;;;;;;;;;;;;-3.95;46.73;98996.06;5111247;28;19924;-56
2024/01/09 05:40:48;;;;;;;;;;;;;;;-3.84;45.68;99000.88;5105328;28;19980;-55
2024/01/09 05:43:36;;;;;;;;;;;;;;;-3.92;47.07;99001.00;5107578;27;19927;-56
2024/01/09 05:46:24;;;;;;;;;;;;;;;-3.94;46.61;99000.41;5101140;28;19927;-55
2024/01/09 05:49:13;;;;;;;;;;;;;;;-3.79;45.59;98994.97;5094904;28;19924;-55
2024/01/09 05:52:01;;;;;;;;;;;;;;;-3.70;45.71;99001.81;5116580;27;20533;-56
2024/01/09 05:54:51;;;;;;;;;;;;;;;-3.91;46.13;99002.66;5106870;28;19973;-57
2024/01/09 05:57:40;;;;;;;;;;;;;;;-4.07;46.10;98997.63;5110078;27;19919;-55
2024/01/09 06:00:28;;;;;;;;;;;;;;;-3.97;46.44;99006.06;5102764;28;19927;-55
2024/01/09 06:03:16;;;;;;;;;;;;;;;-3.96;46.27;99003.22;5095119;28;19924;-58
2024/01/09 06:06:04;;;;;;;;;;;;;;;-4.13;46.05;99003.69;5097715;28;20001;-56
2024/01/09 06:08:53;;;;;;;;;;;;;;;-4.17;46.77;99010.38;5096369;28;19931;-56
2024/01/09 06:11:43;;;;;;;;;;;;;;;-4.00;46.28;99003.78;5100637;28;20385;-55
2024/01/09 06:14:32;;;;;;;;;;;;;;;-3.97;45.41;99009.56;5098214;28;19928;-58
2024/01/09 06:17:21;;;;;;;;;;;;;;;-3.76;44.84;99008.72;5101950;28;20377;-60
2024/01/09 06:20:10;;;;;;;;;;;;;;;-3.85;45.85;99011.69;5098666;28;19963;-56
2024/01/09 06:22:58;;;;;;;;;;;;;;;-3.91;45.72;98999.19;5101387;28;20019;-55
2024/01/09 06:25:47;;;;;;;;;;;;;;;-3.80;44.79;99002.13;5099877;28;19927;-55
2024/01/09 06:28:37;;;;;;;;;;;;;;;-3.72;45.48;99003.84;5101751;28;19924;-55
2024/01/09 06:31:25;;;;;;;;;;;;;;;-3.56;44.76;99005.38;5105906;28;20320;-56
2024/01/09 06:34:13;;;;;;;;;;;;;;;-3.61;43.58;99005.16;5101119;28;19984;-56
2024/01/09 06:37:01;;;;;;;;;;;;;;;-3.61;44.24;99008.63;5105357;28;20388;-56
2024/01/09 06:39:50;;;;;;;;;;;;;;;-3.61;43.94;99007.81;5101415;28;19920;-61
2024/01/09 06:42:39;;;;;;;;;;;;;;;-3.51;43.48;99005.63;5101732;28;19927;-56
2024/01/09 06:45:28;;;;;;;;;;;;;;;-3.79;44.02;99006.41;5103751;28;19998;-59
2024/01/09 06:48:16;;;;;;;;;;;;;;;-3.60;44.25;99009.44;5106108;28;19919;-54
2024/01/09 06:51:06;;;;;;;;;;;;;;;-3.46;44.13;99006.69;5105656;28;19976;-54
2024/01/09 06:53:57;;;;;;;;;;;;;;;-3.56;43.25;99013.34;5121695;27;19956;-55
2024/01/09 06:56:45;;;;;;;;;;;;;;;-3.62;43.06;99016.75;5097484;28;19923;-56
2024/01/09 06:59:33;;;;;;;;;;;;;;;-3.59;42.93;99008.41;5107060;28;20391;-54
2024/01/09 07:02:23;;;;;;;;;;;;;;;-3.56;42.83;99013.34;5111674;28;19923;-54
2024/01/09 07:05:11;;;;;;;;;;;;;;;-3.50;41.62;99015.25;5112904;28;20391;-59
2024/01/09 07:08:00;;;;;;;;;;;;;;;-3.77;42.68;99009.72;5103671;28;20363;-57
2024/01/09 07:10:48;;;;;;;;;;;;;;;-3.63;42.13;99017.78;5111281;28;19964;-56
2024/01/09 07:13:36;;;;;;;;;;;;;;;-3.62;41.59;99019.41;5109056;28;20027;-57
2024/01/09 07:16:24;;;;;;;;;;;;;;;-3.50;42.65;99023.22;5113113;28;19969;-64
2024/01/09 07:19:14;;;;;;;;;;;;;;;-3.48;41.47;99013.19;5112925;28;19919;-55
2024/01/09 07:22:02;;;;;;;;;;;;;;;-3.21;41.49;99028.28;5112730;28;19955;-58
2024/01/09 07:24:50;;;;;;;;;;;;;;;-3.71;40.65;99024.88;5100281;28;19926;-54
2024/01/09 07:27:38;;;;;;;;;;;;;;;-3.39;41.01;99033.28;5108955;27;19920;-55
2024/01/09 07:30:26;;;;;;;;;;;;;;;-3.57;41.85;99024.97;5106636;27;19970;-55
2024/01/09 07:33:14;;;;;;;;;;;;;;;-3.44;41.65;99031.22;5107003;27;19920;-57
2024/01/09 07:36:04;;;;;;;;;;;;;;;-3.26;41.24;99029.88;5108246;27;19951;-54
2024/01/09 07:38:52;;;;;;;;;;;;;;;-3.33;40.97;99034.34;5104745;27;19968;-54
2024/01/09 07:41:40;;;;;;;;;;;;;;;-3.54;41.02;99033.38;5094639;27;20003;-55
2024/01/09 07:44:28;;;;;;;;;;;;;;;-3.40;41.57;99031.66;5106765;27;19924;-54
2024/01/09 07:47:16;;;;;;;;;;;;;;;-3.40;41.43;99038.81;5108162;27;19958;-54
2024/01/09 07:50:05;;;;;;;;;;;;;;;-3.52;41.21;99034.00;5108935;28;19927;-62
2024/01/09 07:52:55;;;;;;;;;;;;;;;-3.56;41.11;99035.44;5101622;27;19928;-54
2024/01/09 07:55:43;;;;;;;;;;;;;;;-3.46;41.11;99035.91;5109535;28;20011;-56
2024/01/09 07:58:31;;;;;;;;;;;;;;;-3.54;41.23;99027.25;5099987;27;19920;-55
2024/01/09 08:01:18;;;;;;;;;;;;;;;-3.49;40.28;99033.63;5096672;27;19927;-55
2024/01/09 08:04:07;;;;;;;;;;;;;;;-3.51;40.55;99032.19;5100652;28;19931;-55
2024/01/09 08:06:56;;;;;;;;;;;;;;;-3.32;41.31;99036.81;5103569;28;20390;-54
2024/01/09 08:09:46;;;;;;;;;;;;;;;-3.11;39.89;99032.44;5098862;28;20043;-54
2024/01/09 08:12:35;;;;;;;;;;;;;;;-2.99;40.16;99033.53;5096194;28;19927;-56
2024/01/09 08:15:23;;;;;;;;;;;;;;;-3.21;39.54;99030.13;5103579;28;19924;-54
2024/01/09 08:18:11;;;;;;;;;;;;;;;-3.23;40.01;99030.34;5103334;28;19919;-55
2024/01/09 08:21:00;;;;;;;;;;;;;;;-3.13;39.25;99029.16;5095860;28;19926;-55
2024/01/09 08:23:48;;;;;;;;;;;;;;;-3.51;39.33;99034.84;5098855;28;19924;-55
2024/01/09 08:26:37;;;;;;;;;;;;;;;-3.32;39.86;99036.81;5102136;28;19919;-55
2024/01/09 08:29:27;;;;;;;;;;;;;;;-3.33;39.39;99040.47;5111104;28;19927;-63
2024/01/09 08:32:18;;;;;;;;;;;;;;;-3.11;40.04;99037.75;5111560;27;20369;-54
2024/01/09 08:35:06;;;;;;;;;;;;;;;-3.14;40.11;99031.00;5101090;27;20494;-55
2024/01/09 08:37:55;;;;;;;;;;;;;;;-3.09;38.53;99031.25;5112370;27;19919;-54
2024/01/09 08:40:43;;;;;;;;;;;;;;;-2.99;39.28;99036.19;5105649;28;20014;-54
2024/01/09 08:43:34;;;;;;;;;;;;;;;-3.09;38.69;99030.41;5107715;27;20450;-54
2024/01/09 08:46:23;;;;;;;;;;;;;;;-3.08;39.71;99032.06;5110753;27;20276;-58
2024/01/09 08:49:13;;;;;;;;;;;;;;;-3.05;38.11;99042.28;5108482;27;19938;-55
2024/01/09 08:52:03;;;;;;;;;;;;;;;-3.00;39.47;99047.84;5106678;27;19965;-56
2024/01/09 08:54:53;;;;;;;;;;;;;;;-3.00;38.19;99047.84;5105662;27;21308;-56
2024/01/09 08:57:42;;;;;;;;;;;;;;;-2.94;37.72;99045.22;5104302;27;19920;-58
2024/01/09 09:00:32;;;;;;;;;;;;;;;-2.73;38.40;99044.28;5112710;27;19920;-57
2024/01/09 09:03:20;;;;;;;;;;;;;;;-2.57;38.24;99044.97;5070283;28;19920;-60
2024/01/09 09:06:08;;;;;;;;;;;;;;;-2.59;37.90;99057.66;5100021;28;20787;-56
2024/01/09 09:08:56;;;;;;;;;;;;;;;-2.57;37.01;99055.63;5066258;28;19920;-55
2024/01/09 09:11:44;;;;;;;;;;;;;;;-2.51;36.77;99055.63;5085149;28;19935;-55
2024/01/09 09:14:32;;;;;;;;;;;;;;;-2.47;37.23;99062.22;5091632;28;19920;-55
2024/01/09 09:17:22;;;;;;;;;;;;;;;-2.53;35.72;99062.19;5081662;28;20011;-56
2024/01/09 09:20:11;;;;;;;;;;;;;;;-2.55;35.51;99050.94;5110251;27;19920;-55
2024/01/09 09:23:00;;;;;;;;;;;;;;;-2.45;36.33;99056.69;5098799;27;19920;-54
2024/01/09 09:25:48;;;;;;;;;;;;;;;-2.36;35.84;99044.84;5093734;27;19967;-54
2024/01/09 09:28:36;;;;;;;;;;;;;;;-2.39;35.34;99054.06;5083235;28;19926;-55
2024/01/09 09:31:32;;;;;;;;;;;;;;;-2.30;35.69;99046.69;5082209;28;20389;-56
2024/01/09 09:34:21;;;;;;;;;;;;;;;-2.40;35.48;99043.59;5086363;28;20434;-58
2024/01/09 09:37:11;;;;;;;;;;;;;;;-2.29;34.93;99048.38;5101084;28;19924;-62
2024/01/09 09:39:59;;;;;;;;;;;;;;;-2.19;34.89;99043.44;5102948;28;19925;-56
2024/01/09 09:42:48;;;;;;;;;;;;;;;-2.21;34.81;99045.50;5101742;28;19923;-57
2024/01/09 09:45:38;;;;;;;;;;;;;;;-2.15;34.82;99050.03;5075240;28;19932;-55
2024/01/09 09:48:27;;;;;;;;;;;;;;;-2.02;34.54;99046.59;5081364;28;19958;-55
2024/01/09 09:51:16;;;;;;;;;;;;;;;-1.88;34.50;99044.75;5079685;28;19951;-55
2024/01/09 09:54:04;;;;;;;;;;;;;;;-1.80;34.72;99039.22;5080752;28;19920;-55
2024/01/09 09:56:52;;;;;;;;;;;;;;;-1.62;34.38;99034.09;5085286;28;19956;-56
2024/01/09 09:59:41;;;;;;;;;;;;;;;-1.59;34.39;99041.69;5086036;28;19924;-55
2024/01/09 10:02:30;;;;;;;;;;;;;;;-1.58;33.50;99037.19;5086926;28;19921;-55
2024/01/09 10:05:18;;;;;;;;;;;;;;;-1.44;34.47;99036.16;5090581;28;20349;-55
2024/01/09 10:08:08;;;;;;;;;;;;;;;-1.40;33.18;99028.56;5079745;28;19924;-56
2024/01/09 10:10:56;;;;;;;;;;;;;;;-1.38;33.31;99037.19;5089247;28;19954;-55
2024/01/09 10:13:44;;;;;;;;;;;;;;;-1.43;34.03;99026.31;5087053;28;20209;-56
2024/01/09 10:16:37;;;;;;;;;;;;;;;-1.24;32.81;99029.97;5089005;28;19970;-56
2024/01/09 10:19:27;;;;;;;;;;;;;;;-1.15;32.94;99028.72;5080626;28;19921;-55
2024/01/09 10:22:15;;;;;;;;;;;;;;;-1.28;32.36;99026.88;5073317;28;19920;-57
2024/01/09 10:25:05;;;;;;;;;;;;;;;-1.17;32.35;99018.28;5078236;28;19954;-56
2024/01/09 10:27:54;;;;;;;;;;;;;;;-1.10;32.03;99021.75;5082457;28;19920;-56
2024/01/09 10:30:43;;;;;;;;;;;;;;;-1.40;31.48;99036.56;5084614;28;19921;-54
2024/01/09 10:33:32;;;;;;;;;;;;;;;-1.36;31.59;99022.59;5079772;28;20314;-55
2024/01/09 10:36:22;;;;;;;;;;;;;;;-1.24;31.96;99011.31;5100183;28;19920;-58
2024/01/09 10:39:11;;;;;;;;;;;;;;;-1.04;31.71;99008.59;5103667;28;20640;-55
2024/01/09 10:42:05;;;;;;;;;;;;;;;-1.07;30.75;98999.97;5103221;28;19924;-57
2024/01/09 10:44:54;;;;;;;;;;;;;;;-0.92;30.46;99001.59;5093400;28;19920;-56
2024/01/09 10:47:42;;;;;;;;;;;;;;;-0.85;30.64;99010.41;5098865;28;20369;-55
2024/01/09 10:50:30;;;;;;;;;;;;;;;-0.71;29.87;99001.31;5107505;28;19931;-54
2024/01/09 10:53:19;;;;;;;;;;;;;;;-0.73;29.47;99005.22;5099029;28;19928;-55
2024/01/09 10:56:08;;;;;;;;;;;;;;;-0.68;29.50;99008.91;5107525;28;19927;-57
2024/01/09 10:58:57;;;;;;;;;;;;;;;-0.85;29.80;99002.41;5110648;28;19972;-57
2024/01/09 11:01:46;;;;;;;;;;;;;;;-0.72;29.94;99006.84;5109468;27;19920;-57
2024/01/09 11:04:34;;;;;;;;;;;;;;;-0.61;28.70;99004.34;5114127;27;19920;-55
2024/01/09 11:07:22;;;;;;;;;;;;;;;-0.61;29.27;98993.66;5088926;28;19920;-55
2024/01/09 11:10:11;;;;;;;;;;;;;;;-0.41;29.47;98998.09;5088997;28;19931;-55
2024/01/09 11:12:59;;;;;;;;;;;;;;;-0.38;29.10;98986.97;5083347;28;19920;-60
2024/01/09 11:15:54;;;;;;;;;;;;;;;-0.36;28.76;98995.59;5084785;28;19920;-56
2024/01/09 11:18:42;;;;;;;;;;;;;;;-0.68;28.73;98992.06;5093088;28;19927;-55
2024/01/09 11:21:31;;;;;;;;;;;;;;;-0.47;28.64;98988.28;5065428;28;20051;-65
2024/01/09 11:24:24;;;;;;;;;;;;;;;-0.33;29.07;98985.28;5093797;28;19986;-55
2024/01/09 11:27:12;;;;;;;;;;;;;;;-0.27;29.10;98981.78;5095144;27;20248;-56
2024/01/09 11:30:00;;;;;;;;;;;;;;;-0.19;28.57;98979.88;5113913;28;19920;-55
2024/01/09 11:32:51;;;;;;;;;;;;;;;-0.07;28.52;98983.50;5104978;27;19924;-55
2024/01/09 11:35:39;;;;;;;;;;;;;;;-0.30;28.08;98970.72;5092201;28;19920;-56
2024/01/09 11:38:30;;;;;;;;;;;;;;;-0.11;28.85;98983.09;5062640;28;19924;-55
2024/01/09 11:41:18;;;;;;;;;;;;;;;-0.32;28.63;98965.59;5082119;28;19920;-56
2024/01/09 11:44:07;;;;;;;;;;;;;;;-0.26;29.10;98961.25;5096460;28;19923;-56
2024/01/09 11:46:55;;;;;;;;;;;;;;;-0.12;29.53;98967.28;5100293;28;19920;-57
2024/01/09 11:49:44;;;;;;;;;;;;;;;-0.12;28.87;98960.09;5105066;28;19931;-57
2024/01/09 11:52:32;;;;;;;;;;;;;;;-0.14;29.13;98961.38;5106406;28;19932;-57
2024/01/09 11:55:21;;;;;;;;;;;;;;;-0.10;29.27;98952.69;5105787;28;19988;-56
2024/01/09 11:58:09;;;;;;;;;;;;;;;-0.11;28.71;98961.72;5104137;27;19932;-56
2024/01/09 12:00:57;;;;;;;;;;;;;;;0.01;29.23;98953.84;5104752;27;19919;-56
2024/01/09 12:03:47;;;;;;;;;;;;;;;0.02;28.54;98943.97;5096785;28;19924;-55
2024/01/09 12:06:36;;;;;;;;;;;;;;;0.10;28.98;98951.72;5103180;28;19994;-58
2024/01/09 12:09:28;;;;;;;;;;;;;;;0.10;28.67;98957.06;5097601;27;19920;-60
2024/01/09 12:12:21;;;;;;;;;;;;;;;0.11;28.18;98940.81;5095240;28;19920;-56
2024/01/09 12:15:10;;;;;;;;;;;;;;;0.06;28.67;98939.84;5103467;27;19920;-56
2024/01/09 12:17:58;;;;;;;;;;;;;;;0.06;28.88;98938.00;5111428;27;19926;-56
2024/01/09 12:20:47;;;;;;;;;;;;;;;0.05;28.81;98944.34;5110305;27;19920;-57
2024/01/09 12:23:36;;;;;;;;;;;;;;;0.25;29.09;98949.53;5111924;27;19920;-56
2024/01/09 12:26:43;;;;;;;;;;;;;;;0.31;29.08;98940.63;5098496;28;20526;-63
2024/01/09 12:29:32;;;;;;;;;;;;;;;0.27;28.55;98944.81;5100009;28;19931;-56
2024/01/09 12:32:21;;;;;;;;;;;;;;;0.35;28.72;98939.16;5105538;27;19976;-56
2024/01/09 12:35:09;;;;;;;;;;;;;;;0.41;28.58;98927.59;5099439;28;20272;-60
2024/01/09 12:37:57;;;;;;;;;;;;;;;0.26;28.62;98929.78;5099425;28;20284;-58
2024/01/09 12:40:47;;;;;;;;;;;;;;;0.44;29.34;98932.50;5101314;28;20477;-55
2024/01/09 12:43:36;;;;;;;;;;;;;;;0.54;28.86;98923.16;5105351;28;19927;-58
2024/01/09 12:46:24;;;;;;;;;;;;;;;0.62;29.65;98922.84;5107187;28;20131;-56
2024/01/09 12:49:12;;;;;;;;;;;;;;;0.64;28.67;98931.47;5105454;28;19935;-55
2024/01/09 12:52:02;;;;;;;;;;;;;;;0.59;28.43;98916.13;5104286;28;19924;-56
2024/01/09 12:54:51;;;;;;;;;;;;;;;0.61;28.46;98911.34;5086997;28;19920;-56
2024/01/09 12:57:40;;;;;;;;;;;;;;;0.65;28.54;98909.06;5106365;27;19924;-62
2024/01/09 13:00:28;;;;;;;;;;;;;;;0.60;28.50;98898.22;5106829;27;19919;-57
2024/01/09 13:03:18;;;;;;;;;;;;;;;0.68;29.63;98897.91;5106833;27;20040;-58
2024/01/09 13:06:06;;;;;;;;;;;;;;;0.78;28.66;98895.53;5100970;27;20012;-55
2024/01/09 13:08:54;;;;;;;;;;;;;;;0.64;28.67;98894.03;5107346;27;20014;-58
2024/01/09 13:11:43;;;;;;;;;;;;;;;0.97;28.48;98891.78;5110796;27;20373;-55
2024/01/09 13:14:32;;;;;;;;;;;;;;;0.83;28.81;98895.66;5106447;27;19977;-56
2024/01/09 13:17:22;;;;;;;;;;;;;;;0.86;28.69;98892.56;5103803;27;19943;-57
2024/01/09 13:20:11;;;;;;;;;;;;;;;0.92;28.70;98888.97;5102412;28;19920;-64
2024/01/09 13:22:59;;;;;;;;;;;;;;;0.99;28.47;98887.03;5099345;27;19927;-58
2024/01/09 13:25:51;;;;;;;;;;;;;;;0.98;28.48;98881.91;5097516;28;19919;-56
2024/01/09 13:28:40;;;;;;;;;;;;;;;0.95;27.95;98888.50;5101493;28;20047;-56
2024/01/09 13:31:33;;;;;;;;;;;;;;;1.05;28.66;98885.31;5101521;28;20410;-56
2024/01/09 13:34:21;;;;;;;;;;;;;;;1.03;27.83;98876.69;5105401;28;20245;-56
2024/01/09 13:37:10;;;;;;;;;;;;;;;1.05;28.25;98886.13;5100455;28;20092;-61
2024/01/09 13:39:58;;;;;;;;;;;;;;;0.99;27.83;98883.53;5102904;28;19927;-58
2024/01/09 13:42:47;;;;;;;;;;;;;;;1.12;29.02;98882.53;5113159;27;19919;-55
2024/01/09 13:45:35;;;;;;;;;;;;;;;1.04;28.58;98878.31;5094978;28;19932;-55
2024/01/09 13:48:24;;;;;;;;;;;;;;;0.74;28.37;98879.09;5102470;28;19980;-55
2024/01/09 13:51:12;;;;;;;;;;;;;;;0.76;28.74;98878.88;5103471;28;20015;-55
2024/01/09 13:54:03;;;;;;;;;;;;;;;0.91;28.24;98871.28;5103754;27;20305;-55
2024/01/09 13:56:53;;;;;;;;;;;;;;;0.96;28.30;98874.13;5102195;27;19938;-63
2024/01/09 13:59:41;;;;;;;;;;;;;;;0.92;27.47;98874.78;5106629;27;19920;-57
2024/01/09 14:02:30;;;;;;;;;;;;;;;0.92;28.52;98870.25;5103343;27;19931;-58
2024/01/09 14:05:21;;;;;;;;;;;;;;;0.73;28.39;98868.63;5103949;27;20058;-55
2024/01/09 14:08:09;;;;;;;;;;;;;;;0.61;28.60;98873.09;5090210;28;19920;-62
2024/01/09 14:10:58;;;;;;;;;;;;;;;0.78;28.50;98880.28;5109329;28;20053;-55
2024/01/09 14:13:47;;;;;;;;;;;;;;;0.78;28.52;98876.78;5102201;28;19928;-56
2024/01/09 14:16:34;;;;;;;;;;;;;;;1.00;28.79;98877.94;5103248;28;19920;-57
2024/01/09 14:19:23;;;;;;;;;;;;;;;0.90;28.09;98871.50;5107366;28;19977;-55
2024/01/09 14:22:13;;;;;;;;;;;;;;;0.81;28.30;98867.53;5104598;28;20008;-58
2024/01/09 14:25:02;;;;;;;;;;;;;;;0.93;28.64;98865.72;5107619;28;19919;-55
2024/01/09 14:27:50;;;;;;;;;;;;;;;0.79;28.56;98878.44;5102845;28;20004;-58
2024/01/09 14:30:38;;;;;;;;;;;;;;;0.67;28.47;98862.31;5106456;28;19943;-56
2024/01/09 14:33:26;;;;;;;;;;;;;;;0.62;28.37;98866.69;5104052;28;20020;-56
2024/01/09 14:36:14;;;;;;;;;;;;;;;0.75;28.68;98866.56;5107549;28;19920;-55
2024/01/09 14:39:04;;;;;;;;;;;;;;;0.81;28.78;98864.84;5108045;28;20490;-56